Time;durP1;ratioP1;P1;durP2;ratioP2;P2;SDS_P1;SDS_P2;PMS_P1;PMS_P2;Temp;Humidity;BMP_temperature;BMP_pressure;BME280_temperature;BME280_humidity;BME280_pressure;Samples;Min_cycle;Max_cycle;Signal;HPM_P1;HPM_P2
2022/07/25 00:01:50;;;;;;;17.40;14.18;;;;;;;33.63;43.76;101286.94;4197688;28;20041;-59
2022/07/25 00:03:51;;;;;;;16.20;14.55;;;;;;;33.63;43.81;101303.13;4198688;28;20097;-58
2022/07/25 00:05:53;;;;;;;15.48;13.98;;;;;;;33.63;43.93;101303.13;4201043;28;20044;-59
2022/07/25 00:07:54;;;;;;;14.60;13.20;;;;;;;33.63;43.80;101305.94;4200905;28;20048;-58
2022/07/25 00:09:55;;;;;;;15.32;13.82;;;;;;;33.59;44.04;101302.22;4200322;28;20044;-59
2022/07/25 00:11:59;;;;;;;15.35;13.75;;;;;;;33.63;43.87;101311.63;4200616;28;20480;-58
2022/07/25 00:14:09;;;;;;;15.68;14.07;;;;;;;33.60;44.16;101313.19;4200453;28;20318;-59
2022/07/25 00:16:11;;;;;;;15.05;13.63;;;;;;;33.64;44.12;101316.13;4199541;28;20040;-58
2022/07/25 00:18:12;;;;;;;15.30;13.80;;;;;;;33.62;44.21;101313.63;4200097;28;20044;-58
2022/07/25 00:20:13;;;;;;;16.58;14.95;;;;;;;33.64;44.40;101316.13;4200014;28;20044;-59
2022/07/25 00:22:15;;;;;;;15.90;14.40;;;;;;;33.57;44.00;101304.56;4200367;28;20106;-58
2022/07/25 00:24:16;;;;;;;15.90;14.25;;;;;;;33.63;44.32;101303.97;4200002;28;20036;-58
2022/07/25 00:26:20;;;;;;;16.38;14.68;;;;;;;33.60;44.53;101298.19;4200226;28;20040;-58
2022/07/25 00:28:21;;;;;;;15.50;14.00;;;;;;;33.64;44.47;101304.78;4199854;28;20044;-58
2022/07/25 00:30:26;;;;;;;15.95;14.20;;;;;;;33.65;44.40;101312.09;4200172;28;20028;-59
2022/07/25 00:32:27;;;;;;;16.35;14.80;;;;;;;33.65;44.16;101314.94;4200515;28;20381;-59
2022/07/25 00:34:28;;;;;;;16.08;14.60;;;;;;;33.64;44.59;101304.78;4200206;28;20473;-57
2022/07/25 00:36:32;;;;;;;15.70;14.15;;;;;;;33.66;44.48;101307.25;4200082;28;20040;-59
2022/07/25 00:38:34;;;;;;;18.38;15.48;;;;;;;33.65;44.47;101309.28;4200102;28;20557;-59
2022/07/25 00:40:36;;;;;;;15.93;14.43;;;;;;;33.67;44.63;101303.22;4199827;28;20033;-59
2022/07/25 00:42:40;;;;;;;16.58;14.43;;;;;;;33.64;44.66;101293.44;4199721;28;20042;-60
2022/07/25 00:44:44;;;;;;;16.40;14.70;;;;;;;33.64;44.64;101307.63;4199895;28;20040;-59
2022/07/25 00:46:48;;;;;;;17.20;15.55;;;;;;;33.67;44.49;101297.53;4199482;28;20066;-60
2022/07/25 00:48:49;;;;;;;15.93;14.43;;;;;;;33.67;44.52;101298.38;4199602;28;20040;-59
2022/07/25 00:50:51;;;;;;;17.48;15.70;;;;;;;33.68;44.71;101288.69;4199825;28;20041;-59
2022/07/25 00:52:52;;;;;;;15.90;14.35;;;;;;;33.66;44.63;101291.06;4199573;28;20086;-60
2022/07/25 00:54:55;;;;;;;18.10;16.08;;;;;;;33.69;44.76;101292.34;4199850;28;20040;-59
2022/07/25 00:56:57;;;;;;;17.15;15.32;;;;;;;33.68;44.89;101300.03;4199510;28;20048;-59
2022/07/25 00:58:58;;;;;;;18.13;16.17;;;;;;;33.60;44.89;101293.31;4199112;28;20041;-59
2022/07/25 01:01:03;;;;;;;17.52;15.73;;;;;;;33.63;44.69;101303.13;4199658;28;20036;-59
2022/07/25 01:03:07;;;;;;;16.63;14.95;;;;;;;33.68;44.77;101319.06;4199906;28;20037;-59
2022/07/25 01:05:10;;;;;;;17.15;15.50;;;;;;;33.62;44.78;101309.97;4199215;28;20441;-59
2022/07/25 01:07:12;;;;;;;17.23;15.43;;;;;;;33.68;44.89;101322.75;4199383;28;20102;-59
2022/07/25 01:09:13;;;;;;;17.05;15.35;;;;;;;33.68;44.88;101328.44;4198901;28;20082;-60
2022/07/25 01:11:18;;;;;;;17.48;15.68;;;;;;;33.69;45.03;101318.72;4199253;28;20040;-59
2022/07/25 01:13:19;;;;;;;17.63;15.68;;;;;;;33.69;44.84;101327.22;4199283;28;20173;-59
2022/07/25 01:15:22;;;;;;;17.45;15.60;;;;;;;33.70;44.97;101325.22;4198978;28;20028;-59
2022/07/25 01:17:23;;;;;;;18.23;16.42;;;;;;;33.69;45.14;101330.06;4198992;28;20476;-59
2022/07/25 01:19:25;;;;;;;17.77;15.88;;;;;;;33.69;45.34;101330.06;4198913;28;20040;-58
2022/07/25 01:21:26;;;;;;;17.83;15.93;;;;;;;33.64;45.40;101327.50;4199484;28;20081;-59
2022/07/25 01:23:28;;;;;;;17.15;15.45;;;;;;;33.69;45.38;101335.75;4199553;28;20074;-58
2022/07/25 01:25:29;;;;;;;17.60;15.88;;;;;;;33.69;45.25;101341.41;4198852;28;20040;-59
2022/07/25 01:27:31;;;;;;;18.08;16.20;;;;;;;33.69;45.38;101335.75;4199237;28;20106;-58
2022/07/25 01:29:35;;;;;;;17.08;15.48;;;;;;;33.67;45.51;101328.75;4198740;28;20114;-58
2022/07/25 01:31:36;;;;;;;17.20;15.50;;;;;;;33.69;45.34;101335.75;4199406;28;20094;-58
2022/07/25 01:33:38;;;;;;;16.80;15.10;;;;;;;33.69;45.53;101338.59;4199255;28;20102;-57
2022/07/25 01:35:45;;;;;;;16.60;15.00;;;;;;;33.68;45.41;101336.94;4198986;28;20093;-57
2022/07/25 01:37:49;;;;;;;18.00;16.13;;;;;;;33.69;45.33;101330.06;4199589;28;20029;-58
2022/07/25 01:39:51;;;;;;;17.10;15.50;;;;;;;33.70;45.30;101330.91;4198576;28;20086;-58
2022/07/25 01:41:52;;;;;;;17.58;15.75;;;;;;;33.70;45.48;101323.19;4199091;28;20419;-58
2022/07/25 01:43:56;;;;;;;17.15;15.35;;;;;;;33.71;45.52;101329.69;4198666;28;20074;-58
2022/07/25 01:45:57;;;;;;;17.55;15.73;;;;;;;33.69;45.28;101324.41;4198878;28;20106;-59
2022/07/25 01:47:59;;;;;;;17.60;15.80;;;;;;;33.61;45.33;101311.19;4198920;28;20040;-60
2022/07/25 01:50:00;;;;;;;17.40;15.70;;;;;;;33.71;45.48;101329.69;4198598;28;20586;-60
2022/07/25 01:52:04;;;;;;;17.52;15.55;;;;;;;33.71;45.46;101326.88;4198940;28;20041;-60
2022/07/25 01:54:06;;;;;;;17.52;15.88;;;;;;;33.71;45.62;101322.00;4197618;28;20496;-60
2022/07/25 01:56:07;;;;;;;16.20;14.70;;;;;;;33.71;45.36;101324.84;4198464;28;20036;-60
2022/07/25 01:58:09;;;;;;;17.08;15.25;;;;;;;33.70;45.41;101317.53;4198840;28;20430;-60
2022/07/25 02:00:14;;;;;;;17.13;15.52;;;;;;;33.70;45.41;101320.38;4198179;28;20040;-60
2022/07/25 02:02:16;;;;;;;16.60;15.05;;;;;;;33.71;45.12;101322.00;4198292;28;20090;-58
2022/07/25 02:04:17;;;;;;;16.80;15.10;;;;;;;33.67;45.12;101320.25;4198789;28;20024;-59
2022/07/25 02:06:19;;;;;;;18.05;16.35;;;;;;;33.70;45.40;101320.38;4198144;28;20052;-59
2022/07/25 02:08:21;;;;;;;17.20;15.60;;;;;;;33.65;45.57;101314.94;4198265;28;20109;-59
2022/07/25 02:10:22;;;;;;;17.55;15.75;;;;;;;33.70;45.53;101326.03;4197679;28;20466;-60
2022/07/25 02:12:23;;;;;;;16.65;15.02;;;;;;;33.71;45.24;101321.19;4198406;28;20090;-59
2022/07/25 02:14:24;;;;;;;17.60;15.75;;;;;;;33.70;45.43;101320.38;4198202;28;20045;-59
2022/07/25 02:16:26;;;;;;;17.38;15.77;;;;;;;33.70;45.28;101328.88;4198341;28;20044;-59
2022/07/25 02:18:28;;;;;;;17.08;15.35;;;;;;;33.70;45.37;101326.03;4198062;28;20464;-58
2022/07/25 02:20:29;;;;;;;17.27;15.45;;;;;;;33.69;45.63;101320.72;4198163;28;20097;-59
2022/07/25 02:22:31;;;;;;;17.45;15.60;;;;;;;33.64;45.20;101314.13;4198579;28;20365;-59
2022/07/25 02:24:32;;;;;;;17.45;15.75;;;;;;;33.68;45.43;101311.41;4198264;28;20093;-59
2022/07/25 02:26:33;;;;;;;17.17;15.50;;;;;;;33.70;45.60;101303.34;4197371;28;20079;-58
2022/07/25 02:28:35;;;;;;;16.80;15.20;;;;;;;33.71;45.41;101313.50;4198037;28;20052;-58
2022/07/25 02:30:37;;;;;;;17.67;15.85;;;;;;;33.67;45.67;101298.38;4198015;28;20101;-58
2022/07/25 02:32:38;;;;;;;16.98;15.25;;;;;;;33.70;45.45;101309.00;4197875;28;20476;-59
2022/07/25 02:34:39;;;;;;;18.67;16.50;;;;;;;33.71;45.72;101304.97;4198172;28;20041;-58
2022/07/25 02:36:41;;;;;;;17.58;15.85;;;;;;;33.71;45.50;101304.97;4198241;28;20398;-59
2022/07/25 02:38:51;;;;;;;16.63;15.02;;;;;;;33.67;45.90;101304.03;4198241;28;20040;-59
2022/07/25 02:40:53;;;;;;;17.02;15.50;;;;;;;33.71;45.78;101315.50;4198205;28;20118;-59
2022/07/25 02:42:54;;;;;;;18.02;16.23;;;;;;;33.63;45.63;101301.13;4197029;28;20062;-59
2022/07/25 02:44:56;;;;;;;16.77;15.13;;;;;;;33.69;45.71;101300.88;4198188;28;20045;-58
2022/07/25 02:46:57;;;;;;;17.00;15.30;;;;;;;33.64;45.84;101290.59;4197909;28;20365;-60
2022/07/25 02:48:58;;;;;;;17.10;15.43;;;;;;;33.66;45.76;101296.72;4198047;28;20090;-59
2022/07/25 02:51:03;;;;;;;17.55;15.80;;;;;;;33.70;45.61;101314.69;4196682;28;20109;-59
2022/07/25 02:53:04;;;;;;;;;;;;;;;33.70;45.36;101302.50;4197045;28;20090;-59
2022/07/25 02:55:09;;;;;;;18.65;16.85;;;;;;;33.75;45.83;101293.75;4198150;28;19920;-58
2022/07/25 02:57:13;;;;;;;16.83;15.23;;;;;;;33.75;45.67;101291.72;4197366;28;20093;-58
2022/07/25 02:59:17;;;;;;;17.33;15.63;;;;;;;33.71;45.89;101282.28;4197088;28;20479;-58
2022/07/25 03:01:20;;;;;;;18.05;16.27;;;;;;;33.74;45.87;101287.25;4197600;28;20502;-59
2022/07/25 03:03:22;;;;;;;17.60;16.00;;;;;;;33.74;46.05;101292.09;4197721;28;20075;-59
2022/07/25 03:05:23;;;;;;;17.13;15.45;;;;;;;33.70;45.76;101286.31;4197632;28;20094;-59
2022/07/25 03:07:25;;;;;;;17.05;15.32;;;;;;;33.73;46.23;101294.09;4197230;28;20045;-59
2022/07/25 03:09:26;;;;;;;17.98;16.27;;;;;;;33.72;45.97;101283.91;4196964;28;20040;-59
2022/07/25 03:11:27;;;;;;;17.30;15.60;;;;;;;33.71;46.26;101290.78;4197881;28;20029;-59
2022/07/25 03:13:29;;;;;;;17.67;15.88;;;;;;;33.71;46.08;101290.78;4197390;28;20090;-59
2022/07/25 03:15:30;;;;;;;17.17;15.48;;;;;;;33.71;46.39;101287.13;4197714;28;20040;-59
2022/07/25 03:17:34;;;;;;;16.98;15.18;;;;;;;33.71;46.45;101298.47;4197607;28;20488;-59
2022/07/25 03:19:36;;;;;;;16.60;15.00;;;;;;;33.71;46.50;101295.66;4197490;28;20032;-59
2022/07/25 03:21:47;;;;;;;17.20;15.50;;;;;;;33.70;46.34;101302.50;4197417;28;20109;-59
2022/07/25 03:23:54;;;;;;;16.35;14.73;;;;;;;33.71;46.19;101298.47;4197383;28;20098;-59
2022/07/25 03:25:56;;;;;;;17.25;15.57;;;;;;;33.70;46.50;101289.16;4197496;28;20094;-58
2022/07/25 03:27:57;;;;;;;17.75;15.88;;;;;;;33.67;46.23;101289.03;4197844;28;20028;-58
2022/07/25 03:29:58;;;;;;;17.70;15.32;;;;;;;33.71;46.50;101296.47;4197288;28;20040;-60
2022/07/25 03:32:00;;;;;;;18.75;16.70;;;;;;;33.71;46.58;101299.31;4197587;28;20049;-59
2022/07/25 03:34:01;;;;;;;17.05;15.45;;;;;;;33.69;46.60;101296.00;4196385;28;20040;-59
2022/07/25 03:36:06;;;;;;;16.75;15.10;;;;;;;33.67;46.55;101292.69;4197298;28;20098;-59
2022/07/25 03:38:07;;;;;;;16.73;15.02;;;;;;;33.71;46.31;101287.94;4199031;28;20117;-59
2022/07/25 03:40:09;;;;;;;17.60;16.00;;;;;;;33.67;46.59;101281.34;4200596;28;20094;-58
2022/07/25 03:42:11;;;;;;;16.35;14.75;;;;;;;33.67;46.78;101275.66;4200637;28;20426;-59
2022/07/25 03:44:12;;;;;;;16.05;14.52;;;;;;;33.64;46.63;101270.72;4200961;28;20032;-59
2022/07/25 03:46:19;;;;;;;16.83;14.43;;;;;;;33.63;46.50;101269.06;4200520;28;20044;-59
2022/07/25 03:48:21;;;;;;;16.70;15.02;;;;;;;33.70;46.90;101286.31;4200927;28;20162;-59
2022/07/25 03:50:22;;;;;;;17.23;15.45;;;;;;;33.70;46.71;101280.63;4200528;28;20040;-59
2022/07/25 03:52:24;;;;;;;16.20;14.70;;;;;;;33.70;46.68;101286.31;4200725;28;20546;-59
2022/07/25 03:54:25;;;;;;;17.05;15.35;;;;;;;33.70;46.78;101286.31;4200827;28;20530;-59
2022/07/25 03:56:34;;;;;;;16.55;14.98;;;;;;;33.70;46.74;101285.47;4200689;28;20045;-59
2022/07/25 03:58:39;;;;;;;16.23;14.57;;;;;;;33.70;46.73;101286.31;4200433;28;20418;-58
2022/07/25 04:00:40;;;;;;;16.88;15.25;;;;;;;33.70;47.06;101294.81;4200469;28;20090;-58
2022/07/25 04:02:44;;;;;;;15.90;14.30;;;;;;;33.68;46.75;101288.69;4200699;28;20097;-58
2022/07/25 04:04:48;;;;;;;15.93;14.43;;;;;;;33.71;46.77;101293.63;4200251;28;20445;-58
2022/07/25 04:06:49;;;;;;;16.25;14.65;;;;;;;33.69;46.80;101284.66;4200470;28;20110;-58
2022/07/25 04:08:51;;;;;;;17.65;15.18;;;;;;;33.62;46.61;101281.59;4200102;28;20044;-59
2022/07/25 04:10:58;;;;;;;16.17;14.60;;;;;;;33.72;46.66;101294.44;4197873;28;20090;-58
2022/07/25 04:12:59;;;;;;;16.40;14.88;;;;;;;33.72;46.86;101295.28;4200301;28;20032;-58
2022/07/25 04:15:00;;;;;;;16.25;14.65;;;;;;;33.72;46.73;101286.75;4200516;28;20033;-58
2022/07/25 04:17:05;;;;;;;15.88;14.27;;;;;;;33.72;46.85;101291.63;4200180;28;20032;-58
2022/07/25 04:19:08;;;;;;;;;;;;;;;33.70;46.55;101291.16;4200176;28;20044;-58
2022/07/25 04:21:10;;;;;;;15.48;13.88;;;;;;;33.75;46.52;101294.56;4200339;28;19958;-58
2022/07/25 04:23:14;;;;;;;16.90;15.25;;;;;;;33.73;46.91;101296.94;4200348;28;20430;-58
2022/07/25 04:25:16;;;;;;;15.35;13.85;;;;;;;33.73;46.68;101296.94;4200324;28;20101;-58
2022/07/25 04:27:21;;;;;;;15.90;14.25;;;;;;;33.72;46.64;101295.28;4199317;28;20041;-59
2022/07/25 04:29:22;;;;;;;16.75;15.15;;;;;;;33.73;46.79;101290.44;4199959;28;20032;-59
2022/07/25 04:31:24;;;;;;;15.60;14.02;;;;;;;33.73;47.01;101287.59;4200279;28;20040;-60
2022/07/25 04:33:26;;;;;;;15.60;14.07;;;;;;;33.71;46.67;101293.63;4199779;28;20048;-59
2022/07/25 04:35:27;;;;;;;15.68;13.90;;;;;;;33.71;46.91;101290.78;4199891;28;20044;-59
2022/07/25 04:37:32;;;;;;;14.45;13.05;;;;;;;33.69;46.54;101283.84;4199836;28;20082;-60
2022/07/25 04:39:33;;;;;;;15.77;14.27;;;;;;;33.72;46.76;101288.78;4199385;28;20476;-59
2022/07/25 04:41:37;;;;;;;16.02;14.52;;;;;;;33.72;47.21;101283.91;4200076;28;20066;-59
2022/07/25 04:43:38;;;;;;;17.60;14.73;;;;;;;33.71;47.02;101282.28;4200187;28;20085;-58
2022/07/25 04:45:42;;;;;;;16.25;14.65;;;;;;;33.64;47.04;101259.38;4200134;28;20036;-60
2022/07/25 04:47:44;;;;;;;14.57;13.18;;;;;;;33.70;47.00;101274.97;4199653;28;20093;-59
2022/07/25 04:49:46;;;;;;;15.52;14.00;;;;;;;33.71;47.16;101270.09;4198804;28;20040;-59
2022/07/25 04:51:47;;;;;;;15.73;14.05;;;;;;;33.71;46.89;101270.94;4199826;28;20045;-59
2022/07/25 04:53:48;;;;;;;16.25;14.52;;;;;;;33.71;47.22;101270.94;4199956;28;20024;-59
2022/07/25 04:55:50;;;;;;;15.57;14.07;;;;;;;33.70;46.98;101262.78;4199546;28;20036;-59
2022/07/25 04:57:51;;;;;;;15.82;14.30;;;;;;;33.65;47.29;101261.03;4199853;28;20090;-59
2022/07/25 04:59:52;;;;;;;15.65;14.13;;;;;;;33.70;46.97;101263.59;4199174;28;20036;-59
2022/07/25 05:01:54;;;;;;;14.65;13.18;;;;;;;33.70;47.10;101255.09;4199854;28;20070;-57
2022/07/25 05:03:55;;;;;;;16.05;14.45;;;;;;;33.69;46.92;101250.59;4199648;28;20044;-59
2022/07/25 05:05:59;;;;;;;15.32;13.73;;;;;;;33.70;46.81;101243.72;4199650;28;20044;-59
2022/07/25 05:08:00;;;;;;;15.18;13.65;;;;;;;33.66;46.98;101234.28;4199635;28;20090;-60
2022/07/25 05:10:03;;;;;;;15.70;14.10;;;;;;;33.71;46.79;101242.53;4199388;28;20105;-59
2022/07/25 05:12:05;;;;;;;15.23;13.73;;;;;;;33.72;47.00;101234.84;4199223;28;20048;-59
2022/07/25 05:14:09;;;;;;;15.68;13.77;;;;;;;33.72;46.99;101237.69;4199567;28;20180;-60
2022/07/25 05:16:10;;;;;;;15.13;13.65;;;;;;;33.67;47.00;101235.94;4199574;28;20045;-59
2022/07/25 05:18:15;;;;;;;14.73;13.23;;;;;;;33.70;46.81;101232.38;4199492;28;20040;-57
2022/07/25 05:20:19;;;;;;;13.98;12.65;;;;;;;33.70;46.86;101229.53;4199158;28;20087;-58
2022/07/25 05:22:20;;;;;;;14.55;13.15;;;;;;;33.71;46.91;101231.19;4199513;28;20036;-58
2022/07/25 05:24:24;;;;;;;14.23;12.82;;;;;;;33.72;46.71;101223.50;4199382;28;20086;-58
2022/07/25 05:26:25;;;;;;;14.57;13.07;;;;;;;33.71;46.78;101219.84;4198979;28;20044;-58
2022/07/25 05:28:26;;;;;;;14.38;12.80;;;;;;;33.72;47.10;101217.81;4199365;28;20086;-59
2022/07/25 05:30:28;;;;;;;13.95;12.63;;;;;;;33.71;46.92;101207.66;4198979;28;20094;-57
2022/07/25 05:32:32;;;;;;;15.15;13.65;;;;;;;33.72;47.15;101203.63;4199167;28;20442;-58
2022/07/25 05:34:33;;;;;;;15.02;13.63;;;;;;;33.71;46.78;101202.81;4199272;28;20032;-59
2022/07/25 05:36:34;;;;;;;15.38;13.77;;;;;;;33.72;47.04;101203.63;4199155;28;20086;-59
2022/07/25 05:38:36;;;;;;;14.45;12.98;;;;;;;33.70;47.02;101204.00;4199359;28;20487;-60
2022/07/25 05:40:40;;;;;;;14.02;12.65;;;;;;;33.72;46.82;101204.44;4198887;28;20041;-59
2022/07/25 05:42:41;;;;;;;14.23;12.60;;;;;;;33.73;46.85;101205.31;4199154;28;20098;-59
2022/07/25 05:44:42;;;;;;;13.55;12.05;;;;;;;33.73;46.88;101194.78;4199085;28;20036;-60
2022/07/25 05:46:44;;;;;;;14.38;12.88;;;;;;;33.72;46.84;101193.09;4198935;28;20450;-59
2022/07/25 05:48:45;;;;;;;15.60;14.00;;;;;;;33.72;47.03;101193.09;4198487;28;20086;-59
2022/07/25 05:50:49;;;;;;;13.95;12.50;;;;;;;33.72;46.78;101192.28;4198595;28;20094;-59
2022/07/25 05:52:51;;;;;;;13.85;12.45;;;;;;;33.72;47.03;101187.41;4198695;28;20040;-59
2022/07/25 05:54:57;;;;;;;14.45;12.98;;;;;;;33.72;47.12;101183.75;4198605;28;20044;-59
2022/07/25 05:57:00;;;;;;;13.55;12.30;;;;;;;33.72;46.76;101183.75;4197055;28;20110;-59
2022/07/25 05:59:01;;;;;;;13.50;12.10;;;;;;;33.71;46.84;101180.09;4198192;28;20105;-59
2022/07/25 06:01:02;;;;;;;14.60;13.20;;;;;;;33.71;46.75;101174.44;4198812;28;20037;-59
2022/07/25 06:03:04;;;;;;;12.80;11.60;;;;;;;33.72;47.02;101170.41;4198502;28;20044;-59
2022/07/25 06:05:05;;;;;;;14.45;12.93;;;;;;;33.72;46.78;101180.94;4198590;28;20075;-60
2022/07/25 06:07:06;;;;;;;13.60;12.13;;;;;;;33.72;46.82;101178.09;4195406;28;20045;-59
2022/07/25 06:09:08;;;;;;;14.38;12.98;;;;;;;33.71;46.98;101168.75;4198280;28;20040;-59
2022/07/25 06:11:09;;;;;;;13.82;12.43;;;;;;;33.71;46.98;101157.41;4198707;28;20101;-59
2022/07/25 06:13:13;;;;;;;13.77;12.48;;;;;;;33.65;46.96;101153.19;4198648;28;20098;-59
2022/07/25 06:15:15;;;;;;;12.88;11.57;;;;;;;33.72;46.77;101155.38;4198601;28;20040;-59
2022/07/25 06:17:17;;;;;;;13.65;12.35;;;;;;;33.71;47.04;101157.41;4198201;28;20090;-59
2022/07/25 06:19:18;;;;;;;13.98;12.43;;;;;;;33.73;47.35;101162.72;4198232;28;20028;-59
2022/07/25 06:21:19;;;;;;;13.93;12.38;;;;;;;33.72;47.06;101164.72;4198461;28;20101;-59
2022/07/25 06:23:23;;;;;;;13.43;12.02;;;;;;;33.72;46.95;101159.03;4198061;28;20036;-59
2022/07/25 06:25:25;;;;;;;14.10;12.65;;;;;;;33.72;46.88;101159.03;4198014;28;20049;-59
2022/07/25 06:27:26;;;;;;;12.50;11.13;;;;;;;33.72;47.03;101152.53;4198208;28;20471;-59
2022/07/25 06:29:30;;;;;;;12.15;10.88;;;;;;;33.69;47.14;101142.75;4198037;28;20097;-59
2022/07/25 06:31:31;;;;;;;13.75;11.55;;;;;;;33.72;47.19;101144.03;4198063;28;20044;-59
2022/07/25 06:33:33;;;;;;;13.85;12.18;;;;;;;33.72;47.02;101146.88;4198632;28;20090;-59
2022/07/25 06:35:35;;;;;;;14.63;13.13;;;;;;;33.72;47.41;101149.72;4198194;28;20094;-59
2022/07/25 06:37:40;;;;;;;12.15;10.90;;;;;;;33.70;46.90;101150.09;4197997;28;20040;-59
2022/07/25 06:39:41;;;;;;;13.40;12.00;;;;;;;33.72;46.83;101146.88;4197836;28;20044;-59
2022/07/25 06:41:42;;;;;;;13.50;12.20;;;;;;;33.71;47.05;101157.41;4198171;28;20040;-59
2022/07/25 06:43:46;;;;;;;14.18;12.05;;;;;;;33.71;46.88;101151.72;4198307;28;20464;-59
2022/07/25 06:45:48;;;;;;;12.70;11.45;;;;;;;33.72;47.02;101158.22;4198211;28;20033;-59
2022/07/25 06:47:49;;;;;;;12.07;10.88;;;;;;;33.72;46.82;101146.88;4197612;28;20090;-59
2022/07/25 06:49:51;;;;;;;13.45;12.05;;;;;;;33.66;47.11;101149.16;4196499;28;20040;-59
2022/07/25 06:51:52;;;;;;;12.20;10.90;;;;;;;33.72;46.97;101158.22;4197628;28;20049;-59
2022/07/25 06:53:54;;;;;;;12.75;11.38;;;;;;;33.72;47.08;101153.38;4198084;28;20040;-59
2022/07/25 06:55:58;;;;;;;11.32;10.10;;;;;;;33.72;47.50;101155.38;4197669;28;20102;-59
2022/07/25 06:57:59;;;;;;;12.38;11.07;;;;;;;33.64;47.45;101146.69;4197876;28;20446;-59
2022/07/25 07:00:05;;;;;;;12.13;10.93;;;;;;;33.66;47.20;101151.19;4196584;28;20032;-59
2022/07/25 07:02:06;;;;;;;14.07;11.75;;;;;;;33.71;47.22;101154.56;4197959;28;20094;-59
2022/07/25 07:04:08;;;;;;;12.68;11.15;;;;;;;33.72;47.74;101153.38;4197534;28;20052;-59
2022/07/25 07:06:09;;;;;;;12.85;11.25;;;;;;;33.72;47.88;101150.53;4197878;28;20418;-59
2022/07/25 07:08:11;;;;;;;10.90;9.80;;;;;;;33.72;48.09;101158.22;4197430;28;20040;-59
2022/07/25 07:10:12;;;;;;;10.57;8.75;;;;;;;33.72;48.68;101161.88;4197476;28;20044;-59
2022/07/25 07:12:14;;;;;;;10.48;8.98;;;;;;;33.68;48.39;101158.16;4197735;28;20032;-59
2022/07/25 07:14:18;;;;;;;10.55;9.02;;;;;;;33.72;48.73;101159.03;4197833;28;20090;-59
2022/07/25 07:16:21;;;;;;;11.25;10.15;;;;;;;33.72;48.63;101163.91;4197784;28;20442;-59
2022/07/25 07:18:23;;;;;;;9.15;8.15;;;;;;;33.72;48.63;101147.69;4197787;28;20033;-59
2022/07/25 07:20:30;;;;;;;11.23;9.93;;;;;;;33.73;48.43;101148.53;4197556;28;20468;-60
2022/07/25 07:22:31;;;;;;;10.05;9.05;;;;;;;33.71;48.10;101142.38;4197672;28;20489;-59
2022/07/25 07:24:33;;;;;;;12.13;10.82;;;;;;;33.72;47.72;101146.88;4197730;28;20430;-60
2022/07/25 07:26:34;;;;;;;10.73;9.73;;;;;;;33.72;47.95;101146.88;4197680;28;20029;-59
2022/07/25 07:28:38;;;;;;;14.60;9.82;;;;;;;33.72;48.06;101147.69;4197631;28;20094;-59
2022/07/25 07:30:42;;;;;;;11.60;10.45;;;;;;;33.72;47.81;101144.03;4197384;28;20102;-59
2022/07/25 07:32:44;;;;;;;13.02;11.70;;;;;;;33.72;47.86;101147.69;4197646;28;20032;-59
2022/07/25 07:34:45;;;;;;;9.70;8.70;;;;;;;33.73;48.46;101148.53;4197358;28;20036;-60
2022/07/25 07:36:47;;;;;;;11.80;9.27;;;;;;;33.72;48.34;101153.38;4197465;28;20094;-60
2022/07/25 07:38:48;;;;;;;9.07;8.18;;;;;;;33.72;48.60;101147.69;4197228;28;20545;-59
2022/07/25 07:40:52;;;;;;;11.95;8.05;;;;;;;33.73;48.29;101154.22;4197325;28;20045;-59
2022/07/25 07:42:55;;;;;;;9.43;8.27;;;;;;;33.71;48.50;101150.91;4197529;28;20450;-59
2022/07/25 07:44:57;;;;;;;10.60;8.55;;;;;;;33.70;48.67;101155.75;4197178;28;20040;-59
2022/07/25 07:47:01;;;;;;;9.15;8.18;;;;;;;33.69;48.82;101153.28;4197000;28;20036;-60
2022/07/25 07:49:05;;;;;;;9.00;8.20;;;;;;;33.68;48.98;101161.00;4196876;28;20041;-59
2022/07/25 07:51:06;;;;;;;8.57;7.78;;;;;;;33.69;48.57;101159.78;4197418;28;20044;-59
2022/07/25 07:53:07;;;;;;;9.85;7.80;;;;;;;33.69;48.52;101156.94;4197266;28;20122;-59
2022/07/25 07:57:33;;;;;;;9.95;9.05;;;;;;;33.69;48.39;101148.44;4198470;28;20094;-59
2022/07/25 07:59:35;;;;;;;11.35;8.65;;;;;;;33.69;48.58;101147.63;4197133;28;20037;-59
2022/07/25 08:01:36;;;;;;;9.80;8.27;;;;;;;33.65;48.60;101144.69;4197424;28;20098;-59
2022/07/25 08:03:38;;;;;;;11.35;8.27;;;;;;;33.65;48.67;101144.69;4197499;28;20037;-59
2022/07/25 08:05:41;;;;;;;9.98;7.60;;;;;;;33.66;48.76;101152.00;4197564;28;20483;-60
2022/07/25 08:07:43;;;;;;;9.27;7.18;;;;;;;33.65;48.69;101153.19;4197341;28;20078;-60
2022/07/25 08:09:46;;;;;;;9.40;8.18;;;;;;;33.59;48.89;101144.13;4196452;28;20056;-59
2022/07/25 08:11:48;;;;;;;9.18;7.28;;;;;;;33.63;48.74;101147.03;4197294;28;20133;-59
2022/07/25 08:13:49;;;;;;;8.80;7.45;;;;;;;33.63;48.94;101144.19;4197095;28;20098;-59
2022/07/25 08:15:57;;;;;;;10.63;7.88;;;;;;;33.50;48.59;101117.13;4197389;28;20090;-59
2022/07/25 08:17:59;;;;;;;10.32;8.27;;;;;;;33.62;48.60;101142.56;4197291;28;20041;-59
2022/07/25 08:20:05;;;;;;;8.77;7.88;;;;;;;33.59;48.49;101143.31;4197151;28;20032;-59
2022/07/25 08:22:12;;;;;;;11.50;7.82;;;;;;;33.62;48.48;101148.22;4197723;28;20045;-59
2022/07/25 08:24:14;;;;;;;8.43;7.57;;;;;;;33.62;48.88;101148.22;4198004;28;20032;-59
2022/07/25 08:26:15;;;;;;;9.80;7.63;;;;;;;33.62;48.49;101143.38;4201051;28;20036;-59
2022/07/25 08:28:19;;;;;;;9.52;6.97;;;;;;;33.55;48.62;101139.53;4200747;28;20090;-59
2022/07/25 08:30:21;;;;;;;8.32;7.25;;;;;;;33.62;48.45;101142.56;4200011;28;20475;-59
2022/07/25 08:32:25;;;;;;;9.75;7.65;;;;;;;33.62;48.53;101142.56;4200871;28;20040;-59
2022/07/25 08:34:27;;;;;;;10.27;8.25;;;;;;;33.60;48.61;101147.78;4201173;28;20032;-60
2022/07/25 08:36:28;;;;;;;8.10;7.30;;;;;;;33.60;48.89;101144.94;4200161;28;20090;-60
2022/07/25 08:38:29;;;;;;;9.65;7.75;;;;;;;33.60;48.53;101156.31;4199880;28;20044;-59
2022/07/25 08:40:32;;;;;;;8.57;7.78;;;;;;;33.60;48.48;101159.13;4199454;28;20036;-59
2022/07/25 08:42:33;;;;;;;9.52;7.38;;;;;;;33.58;48.45;101158.66;4200127;28;20480;-60
2022/07/25 08:44:41;;;;;;;9.23;7.60;;;;;;;33.56;48.84;101146.88;4200137;28;20097;-59
2022/07/25 08:46:43;;;;;;;8.23;7.40;;;;;;;33.58;48.69;101144.47;4200020;28;20093;-60
2022/07/25 08:48:45;;;;;;;8.95;7.75;;;;;;;33.58;48.68;101141.63;4199723;28;20110;-59
2022/07/25 08:50:47;;;;;;;8.43;7.50;;;;;;;33.58;48.63;101147.31;4199927;28;20433;-60
2022/07/25 08:52:49;;;;;;;7.97;7.25;;;;;;;33.56;48.69;101144.03;4199689;28;20097;-59
2022/07/25 08:54:51;;;;;;;9.23;7.85;;;;;;;33.55;48.73;101133.88;4199970;28;20082;-60
2022/07/25 08:56:52;;;;;;;8.68;7.25;;;;;;;33.54;48.66;101138.72;4199400;28;20044;-59
2022/07/25 08:58:57;;;;;;;8.50;7.57;;;;;;;33.53;48.37;101139.06;4199535;28;20040;-59
2022/07/25 09:01:01;;;;;;;8.57;7.70;;;;;;;33.52;48.80;101131.75;4199523;28;20044;-60
2022/07/25 09:03:06;;;;;;;9.90;7.50;;;;;;;33.52;48.97;101137.44;4200017;28;20138;-60
2022/07/25 09:05:08;;;;;;;8.60;7.70;;;;;;;33.50;48.81;101125.63;4199953;28;20036;-60
2022/07/25 09:07:10;;;;;;;8.10;7.32;;;;;;;33.53;48.71;101122.03;4199634;28;20476;-60
2022/07/25 09:09:11;;;;;;;8.23;7.38;;;;;;;33.52;48.59;101120.41;4198988;28;20033;-60
2022/07/25 09:11:24;;;;;;;10.80;8.40;;;;;;;33.52;48.54;101114.72;4199690;28;20036;-59
2022/07/25 09:13:25;;;;;;;7.60;6.90;;;;;;;33.50;48.54;101111.44;4199232;28;20048;-60
2022/07/25 09:15:39;;;;;;;8.32;7.53;;;;;;;33.50;48.83;101111.44;4199255;28;20048;-59
2022/07/25 09:17:52;;;;;;;7.65;6.53;;;;;;;33.37;48.63;101094.44;4199671;28;20365;-59
2022/07/25 09:19:58;;;;;;;8.48;7.63;;;;;;;33.51;48.81;101113.09;4199121;28;20089;-59
2022/07/25 09:22:02;;;;;;;9.45;7.60;;;;;;;33.46;48.57;101110.53;4199389;28;20094;-59